Portada
METAR-TAF:

METAR-TAF

Aeroports :

Nouakchott, Mauritània

latitud: 18-18-36N, longitud: 015-58-11W, altitud: 3 m

Observació

L'informe es va fer fa 22 minuts, a les 14:00 UTC
Vent 7 kt del Nord amb ràfegues de 18 kt, variant entre Nord/Nord-Oest i Est/Nord-Est
Temperatura 34°C
Humitat 25%
Pressió 1011 hPa
Visibilitat: 4800 m
Pols estès

METAR: GQNO 191400Z 01007G18KT 330V060 4800 DU NSC 34/11 Q1011 NOSIG

Hora: 14:22 (14:22 UTC)

Pronòstic

L'informe es va fer fa 3 hores i 22 minuts, a les 11:00 UTC
Pronòstic vàlid del 19 a les 12 UTC al 20 a les 18 UTC
Vent 12 kt del Nord/Nord-Est
Visibilitat: 7000 m
Evolucionant progressivament
l' 19 a les 15 UTC al 19 a les 17 UTC
Vent 14 kt del Nord/Nord-Oest
Temporalment
l' 20 a les 10 UTC al 20 a les 15 UTC
Vent 12 kt del Nord-Est

TAF: GQNO 191100Z 1912/2018 03012KT 7000 NSC BECMG 1915/1917 33014KT TEMPO 2010/2015 04012KT

Observacions i pronòstics meteorològics de més de 4000 aeroports (METAR i TAF).

Les estacions disponibles són els punts grocs i vermells al mapa.

Posi el ratolí al punt desitjat per veure el nom de l'estació.

Feu clic per veure les observacions i els pronòstics meteorològics.

Per canviar el mapa: feu clic els botons verds amb una creu de color negre per apropar; al botó verd amb un guió per allunyar la imatge; o en les fletxes verdes per a mapes adjacents.


METAR-TAF: